sensor_id;sensor_type;location;lat;lon;timestamp;P1;durP1;ratioP1;P2;durP2;ratioP2
37955;SDS011;23776;51.592;7.180;2023-07-08T00:00:51;8.95;;;2.90;;
37955;SDS011;23776;51.592;7.180;2023-07-08T00:03:18;4.93;;;2.80;;
37955;SDS011;23776;51.592;7.180;2023-07-08T00:05:45;5.85;;;2.88;;
37955;SDS011;23776;51.592;7.180;2023-07-08T00:08:15;8.45;;;2.88;;
37955;SDS011;23776;51.592;7.180;2023-07-08T00:10:43;5.32;;;2.83;;
37955;SDS011;23776;51.592;7.180;2023-07-08T00:13:09;5.78;;;3.00;;
37955;SDS011;23776;51.592;7.180;2023-07-08T00:15:36;5.72;;;2.38;;
37955;SDS011;23776;51.592;7.180;2023-07-08T00:18:08;6.07;;;2.75;;
37955;SDS011;23776;51.592;7.180;2023-07-08T00:20:43;4.97;;;2.70;;
37955;SDS011;23776;51.592;7.180;2023-07-08T00:23:10;5.13;;;2.60;;
37955;SDS011;23776;51.592;7.180;2023-07-08T00:25:37;3.38;;;2.10;;
37955;SDS011;23776;51.592;7.180;2023-07-08T00:28:09;4.32;;;2.40;;
37955;SDS011;23776;51.592;7.180;2023-07-08T00:30:40;4.78;;;2.33;;
37955;SDS011;23776;51.592;7.180;2023-07-08T00:33:06;4.03;;;2.42;;
37955;SDS011;23776;51.592;7.180;2023-07-08T00:35:36;5.65;;;2.65;;
37955;SDS011;23776;51.592;7.180;2023-07-08T00:38:11;6.00;;;2.50;;
37955;SDS011;23776;51.592;7.180;2023-07-08T00:43:45;6.90;;;2.40;;
37955;SDS011;23776;51.592;7.180;2023-07-08T00:51:37;5.70;;;2.53;;
37955;SDS011;23776;51.592;7.180;2023-07-08T00:54:24;7.05;;;2.90;;
37955;SDS011;23776;51.592;7.180;2023-07-08T00:56:51;4.65;;;2.35;;
37955;SDS011;23776;51.592;7.180;2023-07-08T00:59:31;4.18;;;2.30;;
37955;SDS011;23776;51.592;7.180;2023-07-08T01:02:15;7.47;;;2.42;;
37955;SDS011;23776;51.592;7.180;2023-07-08T01:04:49;8.07;;;2.80;;
37955;SDS011;23776;51.592;7.180;2023-07-08T01:07:20;7.30;;;3.10;;
37955;SDS011;23776;51.592;7.180;2023-07-08T01:09:48;5.55;;;2.70;;
37955;SDS011;23776;51.592;7.180;2023-07-08T01:12:24;4.63;;;2.50;;
37955;SDS011;23776;51.592;7.180;2023-07-08T01:14:55;4.28;;;2.70;;
37955;SDS011;23776;51.592;7.180;2023-07-08T01:17:22;7.88;;;2.88;;
37955;SDS011;23776;51.592;7.180;2023-07-08T01:19:48;7.88;;;2.60;;
37955;SDS011;23776;51.592;7.180;2023-07-08T01:22:16;4.15;;;2.40;;
37955;SDS011;23776;51.592;7.180;2023-07-08T01:24:42;7.80;;;2.78;;
37955;SDS011;23776;51.592;7.180;2023-07-08T01:27:10;4.10;;;2.58;;
37955;SDS011;23776;51.592;7.180;2023-07-08T01:29:38;7.25;;;3.90;;
37955;SDS011;23776;51.592;7.180;2023-07-08T01:32:04;6.40;;;2.63;;
37955;SDS011;23776;51.592;7.180;2023-07-08T01:34:33;4.22;;;2.38;;
37955;SDS011;23776;51.592;7.180;2023-07-08T01:37:02;3.88;;;2.33;;
37955;SDS011;23776;51.592;7.180;2023-07-08T01:39:31;6.45;;;2.85;;
37955;SDS011;23776;51.592;7.180;2023-07-08T01:41:57;5.55;;;2.97;;
37955;SDS011;23776;51.592;7.180;2023-07-08T01:47:08;6.45;;;2.83;;
37955;SDS011;23776;51.592;7.180;2023-07-08T01:49:40;4.95;;;2.80;;
37955;SDS011;23776;51.592;7.180;2023-07-08T01:52:07;5.55;;;2.80;;
37955;SDS011;23776;51.592;7.180;2023-07-08T01:54:35;3.65;;;2.40;;
37955;SDS011;23776;51.592;7.180;2023-07-08T01:57:00;10.40;;;2.75;;
37955;SDS011;23776;51.592;7.180;2023-07-08T01:59:27;5.72;;;2.47;;
37955;SDS011;23776;51.592;7.180;2023-07-08T02:01:53;4.35;;;2.40;;
37955;SDS011;23776;51.592;7.180;2023-07-08T02:04:23;5.68;;;2.95;;
37955;SDS011;23776;51.592;7.180;2023-07-08T02:06:57;3.97;;;2.50;;
37955;SDS011;23776;51.592;7.180;2023-07-08T02:09:24;5.38;;;2.67;;
37955;SDS011;23776;51.592;7.180;2023-07-08T02:11:51;3.55;;;2.20;;
37955;SDS011;23776;51.592;7.180;2023-07-08T02:14:17;4.50;;;2.65;;
37955;SDS011;23776;51.592;7.180;2023-07-08T02:16:43;12.13;;;3.00;;
37955;SDS011;23776;51.592;7.180;2023-07-08T02:19:09;5.68;;;2.78;;
37955;SDS011;23776;51.592;7.180;2023-07-08T02:21:35;6.82;;;3.05;;
37955;SDS011;23776;51.592;7.180;2023-07-08T02:24:01;6.47;;;2.40;;
37955;SDS011;23776;51.592;7.180;2023-07-08T02:26:27;4.97;;;2.50;;
37955;SDS011;23776;51.592;7.180;2023-07-08T02:28:53;4.50;;;2.72;;
37955;SDS011;23776;51.592;7.180;2023-07-08T02:31:18;3.85;;;2.45;;
37955;SDS011;23776;51.592;7.180;2023-07-08T02:33:44;6.18;;;2.75;;
37955;SDS011;23776;51.592;7.180;2023-07-08T02:36:10;5.53;;;2.60;;
37955;SDS011;23776;51.592;7.180;2023-07-08T02:38:35;8.65;;;3.10;;
37955;SDS011;23776;51.592;7.180;2023-07-08T02:41:01;7.00;;;2.90;;
37955;SDS011;23776;51.592;7.180;2023-07-08T02:43:26;6.60;;;2.92;;
37955;SDS011;23776;51.592;7.180;2023-07-08T02:45:52;7.30;;;2.92;;
37955;SDS011;23776;51.592;7.180;2023-07-08T02:48:18;6.38;;;3.13;;
37955;SDS011;23776;51.592;7.180;2023-07-08T02:50:44;4.60;;;2.80;;
37955;SDS011;23776;51.592;7.180;2023-07-08T02:53:10;6.00;;;2.53;;
37955;SDS011;23776;51.592;7.180;2023-07-08T02:55:35;6.68;;;2.83;;
37955;SDS011;23776;51.592;7.180;2023-07-08T02:58:01;4.70;;;2.70;;
37955;SDS011;23776;51.592;7.180;2023-07-08T03:00:27;6.80;;;2.72;;
37955;SDS011;23776;51.592;7.180;2023-07-08T03:02:53;8.35;;;3.13;;
37955;SDS011;23776;51.592;7.180;2023-07-08T03:05:18;6.72;;;2.92;;
37955;SDS011;23776;51.592;7.180;2023-07-08T03:07:44;5.68;;;2.65;;
37955;SDS011;23776;51.592;7.180;2023-07-08T03:10:09;7.60;;;2.83;;
37955;SDS011;23776;51.592;7.180;2023-07-08T03:12:35;4.05;;;2.05;;
37955;SDS011;23776;51.592;7.180;2023-07-08T03:15:00;5.97;;;2.53;;
37955;SDS011;23776;51.592;7.180;2023-07-08T03:17:26;4.30;;;2.83;;
37955;SDS011;23776;51.592;7.180;2023-07-08T03:19:52;6.05;;;3.03;;
37955;SDS011;23776;51.592;7.180;2023-07-08T03:22:17;7.55;;;3.13;;
37955;SDS011;23776;51.592;7.180;2023-07-08T03:24:43;5.63;;;2.50;;
37955;SDS011;23776;51.592;7.180;2023-07-08T03:27:11;10.02;;;2.65;;
37955;SDS011;23776;51.592;7.180;2023-07-08T03:29:38;10.98;;;3.10;;
37955;SDS011;23776;51.592;7.180;2023-07-08T03:32:04;6.10;;;3.00;;
37955;SDS011;23776;51.592;7.180;2023-07-08T03:34:30;6.68;;;2.97;;
37955;SDS011;23776;51.592;7.180;2023-07-08T03:36:55;4.15;;;2.50;;
37955;SDS011;23776;51.592;7.180;2023-07-08T03:39:23;4.07;;;2.65;;
37955;SDS011;23776;51.592;7.180;2023-07-08T03:41:49;4.75;;;3.40;;
37955;SDS011;23776;51.592;7.180;2023-07-08T03:44:16;5.40;;;3.08;;
37955;SDS011;23776;51.592;7.180;2023-07-08T03:46:46;7.82;;;3.05;;
37955;SDS011;23776;51.592;7.180;2023-07-08T03:49:14;7.90;;;2.88;;
37955;SDS011;23776;51.592;7.180;2023-07-08T03:51:41;5.70;;;3.00;;
37955;SDS011;23776;51.592;7.180;2023-07-08T03:54:09;5.20;;;2.88;;
37955;SDS011;23776;51.592;7.180;2023-07-08T03:56:37;5.57;;;3.15;;
37955;SDS011;23776;51.592;7.180;2023-07-08T03:59:03;4.85;;;2.80;;
37955;SDS011;23776;51.592;7.180;2023-07-08T04:01:29;4.50;;;2.65;;
37955;SDS011;23776;51.592;7.180;2023-07-08T04:03:55;4.60;;;2.72;;
37955;SDS011;23776;51.592;7.180;2023-07-08T04:06:22;5.85;;;2.80;;
37955;SDS011;23776;51.592;7.180;2023-07-08T04:08:49;4.85;;;2.90;;
37955;SDS011;23776;51.592;7.180;2023-07-08T04:11:17;4.15;;;2.72;;
37955;SDS011;23776;51.592;7.180;2023-07-08T04:13:44;6.07;;;3.50;;
37955;SDS011;23776;51.592;7.180;2023-07-08T04:16:23;6.28;;;2.95;;
37955;SDS011;23776;51.592;7.180;2023-07-08T04:18:55;7.43;;;2.67;;
37955;SDS011;23776;51.592;7.180;2023-07-08T04:21:22;5.53;;;2.70;;
37955;SDS011;23776;51.592;7.180;2023-07-08T04:23:50;4.65;;;2.75;;
37955;SDS011;23776;51.592;7.180;2023-07-08T04:26:15;6.07;;;2.85;;
37955;SDS011;23776;51.592;7.180;2023-07-08T04:28:42;7.32;;;2.95;;
37955;SDS011;23776;51.592;7.180;2023-07-08T04:31:07;6.57;;;2.90;;
37955;SDS011;23776;51.592;7.180;2023-07-08T04:33:33;9.85;;;3.00;;
37955;SDS011;23776;51.592;7.180;2023-07-08T04:35:59;7.75;;;3.13;;
37955;SDS011;23776;51.592;7.180;2023-07-08T04:38:25;7.78;;;3.38;;
37955;SDS011;23776;51.592;7.180;2023-07-08T04:40:52;5.88;;;3.03;;
37955;SDS011;23776;51.592;7.180;2023-07-08T04:43:18;5.57;;;2.97;;
37955;SDS011;23776;51.592;7.180;2023-07-08T04:45:46;5.30;;;3.03;;
37955;SDS011;23776;51.592;7.180;2023-07-08T04:48:18;9.30;;;3.33;;
37955;SDS011;23776;51.592;7.180;2023-07-08T04:50:48;6.25;;;3.00;;
37955;SDS011;23776;51.592;7.180;2023-07-08T04:53:14;7.88;;;3.13;;
37955;SDS011;23776;51.592;7.180;2023-07-08T04:55:45;10.30;;;3.63;;
37955;SDS011;23776;51.592;7.180;2023-07-08T05:00:40;7.25;;;3.33;;
37955;SDS011;23776;51.592;7.180;2023-07-08T05:03:05;9.63;;;3.67;;
37955;SDS011;23776;51.592;7.180;2023-07-08T05:05:31;4.47;;;2.78;;
37955;SDS011;23776;51.592;7.180;2023-07-08T05:07:56;5.22;;;2.95;;
37955;SDS011;23776;51.592;7.180;2023-07-08T05:10:22;6.65;;;3.22;;
37955;SDS011;23776;51.592;7.180;2023-07-08T05:12:48;6.68;;;3.30;;
37955;SDS011;23776;51.592;7.180;2023-07-08T05:15:14;5.55;;;3.25;;
37955;SDS011;23776;51.592;7.180;2023-07-08T05:17:40;7.28;;;3.38;;
37955;SDS011;23776;51.592;7.180;2023-07-08T05:20:07;9.20;;;3.60;;
37955;SDS011;23776;51.592;7.180;2023-07-08T05:22:35;7.82;;;3.38;;
37955;SDS011;23776;51.592;7.180;2023-07-08T05:25:01;4.90;;;2.72;;
37955;SDS011;23776;51.592;7.180;2023-07-08T05:27:28;7.53;;;3.15;;
37955;SDS011;23776;51.592;7.180;2023-07-08T05:29:54;6.50;;;3.53;;
37955;SDS011;23776;51.592;7.180;2023-07-08T05:32:19;7.05;;;3.65;;
37955;SDS011;23776;51.592;7.180;2023-07-08T05:34:46;6.28;;;3.13;;
37955;SDS011;23776;51.592;7.180;2023-07-08T05:37:12;7.78;;;3.50;;
37955;SDS011;23776;51.592;7.180;2023-07-08T05:39:38;6.13;;;3.17;;
37955;SDS011;23776;51.592;7.180;2023-07-08T05:42:04;8.40;;;3.45;;
37955;SDS011;23776;51.592;7.180;2023-07-08T05:44:29;6.15;;;3.47;;
37955;SDS011;23776;51.592;7.180;2023-07-08T05:46:55;11.90;;;3.55;;
37955;SDS011;23776;51.592;7.180;2023-07-08T05:49:21;8.20;;;3.75;;
37955;SDS011;23776;51.592;7.180;2023-07-08T05:51:46;6.00;;;2.70;;
37955;SDS011;23776;51.592;7.180;2023-07-08T05:54:12;7.22;;;3.25;;
37955;SDS011;23776;51.592;7.180;2023-07-08T05:56:38;5.35;;;3.15;;
37955;SDS011;23776;51.592;7.180;2023-07-08T05:59:04;7.10;;;3.35;;
37955;SDS011;23776;51.592;7.180;2023-07-08T06:01:30;5.35;;;3.30;;
37955;SDS011;23776;51.592;7.180;2023-07-08T06:03:56;5.30;;;3.30;;
37955;SDS011;23776;51.592;7.180;2023-07-08T06:06:26;5.03;;;2.92;;
37955;SDS011;23776;51.592;7.180;2023-07-08T06:08:52;6.72;;;3.15;;
37955;SDS011;23776;51.592;7.180;2023-07-08T06:11:18;5.68;;;3.40;;
37955;SDS011;23776;51.592;7.180;2023-07-08T06:13:44;6.88;;;3.65;;
37955;SDS011;23776;51.592;7.180;2023-07-08T06:16:10;5.53;;;3.45;;
37955;SDS011;23776;51.592;7.180;2023-07-08T06:18:36;5.20;;;3.55;;
37955;SDS011;23776;51.592;7.180;2023-07-08T06:21:01;7.63;;;3.35;;
37955;SDS011;23776;51.592;7.180;2023-07-08T06:23:27;7.32;;;3.72;;
37955;SDS011;23776;51.592;7.180;2023-07-08T06:25:54;5.55;;;3.28;;
37955;SDS011;23776;51.592;7.180;2023-07-08T06:28:20;5.75;;;2.95;;
37955;SDS011;23776;51.592;7.180;2023-07-08T06:30:46;5.85;;;3.30;;
37955;SDS011;23776;51.592;7.180;2023-07-08T06:33:12;6.00;;;3.15;;
37955;SDS011;23776;51.592;7.180;2023-07-08T06:35:38;8.93;;;3.53;;
37955;SDS011;23776;51.592;7.180;2023-07-08T06:38:04;7.03;;;3.50;;
37955;SDS011;23776;51.592;7.180;2023-07-08T06:40:31;5.15;;;3.30;;
37955;SDS011;23776;51.592;7.180;2023-07-08T06:42:57;8.90;;;4.03;;
37955;SDS011;23776;51.592;7.180;2023-07-08T06:45:23;7.53;;;3.75;;
37955;SDS011;23776;51.592;7.180;2023-07-08T06:47:48;6.07;;;3.65;;
37955;SDS011;23776;51.592;7.180;2023-07-08T06:50:14;11.80;;;3.70;;
37955;SDS011;23776;51.592;7.180;2023-07-08T06:52:39;6.72;;;3.58;;
37955;SDS011;23776;51.592;7.180;2023-07-08T06:55:06;6.00;;;3.25;;
37955;SDS011;23776;51.592;7.180;2023-07-08T06:57:33;8.52;;;3.97;;
37955;SDS011;23776;51.592;7.180;2023-07-08T06:59:59;6.28;;;3.17;;
37955;SDS011;23776;51.592;7.180;2023-07-08T07:02:25;4.80;;;3.05;;
37955;SDS011;23776;51.592;7.180;2023-07-08T07:04:51;7.88;;;3.60;;
37955;SDS011;23776;51.592;7.180;2023-07-08T07:07:17;4.30;;;2.90;;
37955;SDS011;23776;51.592;7.180;2023-07-08T07:09:43;6.43;;;3.38;;
37955;SDS011;23776;51.592;7.180;2023-07-08T07:12:08;6.47;;;3.53;;
37955;SDS011;23776;51.592;7.180;2023-07-08T07:14:34;5.38;;;3.28;;
37955;SDS011;23776;51.592;7.180;2023-07-08T07:17:00;6.07;;;3.38;;
37955;SDS011;23776;51.592;7.180;2023-07-08T07:19:26;7.28;;;3.15;;
37955;SDS011;23776;51.592;7.180;2023-07-08T07:21:52;11.75;;;3.15;;
37955;SDS011;23776;51.592;7.180;2023-07-08T07:24:17;6.55;;;3.83;;
37955;SDS011;23776;51.592;7.180;2023-07-08T07:26:43;6.25;;;3.28;;
37955;SDS011;23776;51.592;7.180;2023-07-08T07:29:09;6.35;;;3.55;;
37955;SDS011;23776;51.592;7.180;2023-07-08T07:31:35;6.20;;;3.75;;
37955;SDS011;23776;51.592;7.180;2023-07-08T07:34:01;5.97;;;3.45;;
37955;SDS011;23776;51.592;7.180;2023-07-08T07:36:27;6.93;;;3.53;;
37955;SDS011;23776;51.592;7.180;2023-07-08T07:38:54;6.45;;;3.25;;
37955;SDS011;23776;51.592;7.180;2023-07-08T07:41:19;6.53;;;3.75;;
37955;SDS011;23776;51.592;7.180;2023-07-08T07:43:45;6.25;;;3.47;;
37955;SDS011;23776;51.592;7.180;2023-07-08T07:46:11;8.23;;;4.15;;
37955;SDS011;23776;51.592;7.180;2023-07-08T07:48:37;8.63;;;4.10;;
37955;SDS011;23776;51.592;7.180;2023-07-08T07:51:03;8.75;;;4.22;;
37955;SDS011;23776;51.592;7.180;2023-07-08T07:53:29;9.75;;;4.28;;
37955;SDS011;23776;51.592;7.180;2023-07-08T07:55:58;7.35;;;3.55;;
37955;SDS011;23776;51.592;7.180;2023-07-08T07:58:25;7.78;;;4.50;;
37955;SDS011;23776;51.592;7.180;2023-07-08T08:00:51;10.43;;;4.55;;
37955;SDS011;23776;51.592;7.180;2023-07-08T08:03:17;10.35;;;5.05;;
37955;SDS011;23776;51.592;7.180;2023-07-08T08:05:42;8.70;;;4.20;;
37955;SDS011;23776;51.592;7.180;2023-07-08T08:08:08;13.38;;;4.13;;
37955;SDS011;23776;51.592;7.180;2023-07-08T08:10:34;11.20;;;4.15;;
37955;SDS011;23776;51.592;7.180;2023-07-08T08:13:01;8.73;;;3.95;;
37955;SDS011;23776;51.592;7.180;2023-07-08T08:15:27;8.38;;;3.40;;
37955;SDS011;23776;51.592;7.180;2023-07-08T08:17:53;4.43;;;3.63;;
37955;SDS011;23776;51.592;7.180;2023-07-08T08:20:19;7.45;;;4.18;;
37955;SDS011;23776;51.592;7.180;2023-07-08T08:22:46;10.35;;;4.30;;
37955;SDS011;23776;51.592;7.180;2023-07-08T08:25:13;6.82;;;4.13;;
37955;SDS011;23776;51.592;7.180;2023-07-08T08:27:43;12.95;;;4.43;;
37955;SDS011;23776;51.592;7.180;2023-07-08T08:30:09;7.30;;;3.75;;
37955;SDS011;23776;51.592;7.180;2023-07-08T08:32:35;9.30;;;4.10;;
37955;SDS011;23776;51.592;7.180;2023-07-08T08:35:01;7.97;;;3.58;;
37955;SDS011;23776;51.592;7.180;2023-07-08T08:37:26;7.28;;;3.83;;
37955;SDS011;23776;51.592;7.180;2023-07-08T08:39:52;11.13;;;4.70;;
37955;SDS011;23776;51.592;7.180;2023-07-08T08:44:52;8.70;;;3.88;;
37955;SDS011;23776;51.592;7.180;2023-07-08T08:49:56;6.95;;;4.30;;
37955;SDS011;23776;51.592;7.180;2023-07-08T08:52:25;8.35;;;4.53;;
37955;SDS011;23776;51.592;7.180;2023-07-08T08:54:51;7.63;;;4.35;;
37955;SDS011;23776;51.592;7.180;2023-07-08T08:59:57;6.40;;;4.05;;
37955;SDS011;23776;51.592;7.180;2023-07-08T09:04:58;8.85;;;4.50;;
37955;SDS011;23776;51.592;7.180;2023-07-08T09:07:28;10.32;;;5.68;;
37955;SDS011;23776;51.592;7.180;2023-07-08T09:10:10;11.20;;;5.10;;
37955;SDS011;23776;51.592;7.180;2023-07-08T09:12:46;11.90;;;5.00;;
37955;SDS011;23776;51.592;7.180;2023-07-08T09:15:16;9.77;;;4.88;;
37955;SDS011;23776;51.592;7.180;2023-07-08T09:17:42;8.25;;;4.93;;
37955;SDS011;23776;51.592;7.180;2023-07-08T09:20:25;8.45;;;4.70;;
37955;SDS011;23776;51.592;7.180;2023-07-08T09:25:43;9.50;;;4.57;;
37955;SDS011;23776;51.592;7.180;2023-07-08T09:28:16;6.72;;;4.88;;
37955;SDS011;23776;51.592;7.180;2023-07-08T09:30:41;6.32;;;4.65;;
37955;SDS011;23776;51.592;7.180;2023-07-08T09:33:17;10.00;;;4.65;;
37955;SDS011;23776;51.592;7.180;2023-07-08T09:35:44;8.48;;;4.97;;
37955;SDS011;23776;51.592;7.180;2023-07-08T09:38:16;8.55;;;4.85;;
37955;SDS011;23776;51.592;7.180;2023-07-08T09:40:47;8.18;;;5.10;;
37955;SDS011;23776;51.592;7.180;2023-07-08T09:45:41;7.53;;;4.65;;
37955;SDS011;23776;51.592;7.180;2023-07-08T09:48:35;9.45;;;5.60;;
37955;SDS011;23776;51.592;7.180;2023-07-08T09:50:58;7.28;;;4.65;;
37955;SDS011;23776;51.592;7.180;2023-07-08T09:53:24;10.43;;;5.30;;
37955;SDS011;23776;51.592;7.180;2023-07-08T09:55:51;7.75;;;4.63;;
37955;SDS011;23776;51.592;7.180;2023-07-08T09:58:20;8.77;;;5.30;;
37955;SDS011;23776;51.592;7.180;2023-07-08T10:00:57;11.02;;;5.43;;
37955;SDS011;23776;51.592;7.180;2023-07-08T10:03:30;12.73;;;5.90;;
37955;SDS011;23776;51.592;7.180;2023-07-08T10:05:58;9.00;;;5.50;;
37955;SDS011;23776;51.592;7.180;2023-07-08T10:08:42;8.55;;;5.40;;
37955;SDS011;23776;51.592;7.180;2023-07-08T10:14:01;8.50;;;5.28;;
37955;SDS011;23776;51.592;7.180;2023-07-08T10:16:31;8.90;;;5.63;;
37955;SDS011;23776;51.592;7.180;2023-07-08T10:18:58;9.40;;;5.93;;
37955;SDS011;23776;51.592;7.180;2023-07-08T10:26:43;8.43;;;5.38;;
37955;SDS011;23776;51.592;7.180;2023-07-08T10:40:34;9.23;;;5.43;;
37955;SDS011;23776;51.592;7.180;2023-07-08T10:51:21;11.48;;;5.85;;
37955;SDS011;23776;51.592;7.180;2023-07-08T10:56:49;7.63;;;5.43;;
37955;SDS011;23776;51.592;7.180;2023-07-08T10:59:41;9.30;;;5.30;;
37955;SDS011;23776;51.592;7.180;2023-07-08T11:10:52;9.88;;;5.30;;
37955;SDS011;23776;51.592;7.180;2023-07-08T11:13:28;9.70;;;4.60;;
37955;SDS011;23776;51.592;7.180;2023-07-08T11:16:05;7.22;;;4.72;;
37955;SDS011;23776;51.592;7.180;2023-07-08T11:18:41;10.52;;;5.22;;
37955;SDS011;23776;51.592;7.180;2023-07-08T11:21:27;8.57;;;4.88;;
37955;SDS011;23776;51.592;7.180;2023-07-08T11:24:05;7.22;;;4.50;;
37955;SDS011;23776;51.592;7.180;2023-07-08T11:26:47;7.95;;;4.40;;
37955;SDS011;23776;51.592;7.180;2023-07-08T11:29:20;7.28;;;4.32;;
37955;SDS011;23776;51.592;7.180;2023-07-08T11:31:53;8.35;;;4.20;;
37955;SDS011;23776;51.592;7.180;2023-07-08T11:34:20;6.80;;;4.15;;
37955;SDS011;23776;51.592;7.180;2023-07-08T11:36:46;7.18;;;4.30;;
37955;SDS011;23776;51.592;7.180;2023-07-08T11:39:33;6.88;;;4.22;;
37955;SDS011;23776;51.592;7.180;2023-07-08T11:44:55;6.03;;;4.38;;
37955;SDS011;23776;51.592;7.180;2023-07-08T11:47:39;7.03;;;4.20;;
37955;SDS011;23776;51.592;7.180;2023-07-08T11:50:23;9.57;;;4.07;;
37955;SDS011;23776;51.592;7.180;2023-07-08T11:52:57;10.23;;;4.38;;
37955;SDS011;23776;51.592;7.180;2023-07-08T11:58:19;6.35;;;3.97;;
37955;SDS011;23776;51.592;7.180;2023-07-08T12:00:57;10.32;;;4.15;;
37955;SDS011;23776;51.592;7.180;2023-07-08T12:03:23;7.97;;;3.97;;
37955;SDS011;23776;51.592;7.180;2023-07-08T12:05:59;7.10;;;4.47;;
37955;SDS011;23776;51.592;7.180;2023-07-08T12:08:35;9.75;;;4.25;;
37955;SDS011;23776;51.592;7.180;2023-07-08T12:11:03;7.60;;;4.63;;
37955;SDS011;23776;51.592;7.180;2023-07-08T12:13:28;5.63;;;4.00;;
37955;SDS011;23776;51.592;7.180;2023-07-08T12:15:55;7.50;;;4.45;;
37955;SDS011;23776;51.592;7.180;2023-07-08T12:18:24;6.40;;;4.53;;
37955;SDS011;23776;51.592;7.180;2023-07-08T12:20:57;9.13;;;4.13;;
37955;SDS011;23776;51.592;7.180;2023-07-08T12:23:26;10.95;;;4.90;;
37955;SDS011;23776;51.592;7.180;2023-07-08T12:25:52;6.90;;;4.53;;
37955;SDS011;23776;51.592;7.180;2023-07-08T12:28:19;8.68;;;4.28;;
37955;SDS011;23776;51.592;7.180;2023-07-08T12:30:46;8.25;;;4.30;;
37955;SDS011;23776;51.592;7.180;2023-07-08T12:33:13;6.90;;;4.22;;
37955;SDS011;23776;51.592;7.180;2023-07-08T12:35:42;6.35;;;4.50;;
37955;SDS011;23776;51.592;7.180;2023-07-08T12:38:31;6.00;;;4.18;;
37955;SDS011;23776;51.592;7.180;2023-07-08T12:41:01;6.13;;;4.18;;
37955;SDS011;23776;51.592;7.180;2023-07-08T12:43:30;10.95;;;4.97;;
37955;SDS011;23776;51.592;7.180;2023-07-08T12:45:55;7.05;;;4.65;;
37955;SDS011;23776;51.592;7.180;2023-07-08T12:48:21;6.32;;;4.00;;
37955;SDS011;23776;51.592;7.180;2023-07-08T12:50:47;5.53;;;4.35;;
37955;SDS011;23776;51.592;7.180;2023-07-08T12:53:15;8.75;;;4.40;;
37955;SDS011;23776;51.592;7.180;2023-07-08T12:55:41;9.43;;;4.50;;
37955;SDS011;23776;51.592;7.180;2023-07-08T12:58:12;8.73;;;4.20;;
37955;SDS011;23776;51.592;7.180;2023-07-08T13:00:39;6.65;;;4.38;;
37955;SDS011;23776;51.592;7.180;2023-07-08T13:03:14;6.88;;;4.78;;
37955;SDS011;23776;51.592;7.180;2023-07-08T13:05:49;11.38;;;4.53;;
37955;SDS011;23776;51.592;7.180;2023-07-08T13:08:18;5.53;;;3.92;;
37955;SDS011;23776;51.592;7.180;2023-07-08T13:10:47;7.13;;;3.95;;
37955;SDS011;23776;51.592;7.180;2023-07-08T13:13:20;10.38;;;4.10;;
37955;SDS011;23776;51.592;7.180;2023-07-08T13:15:48;6.10;;;4.13;;
37955;SDS011;23776;51.592;7.180;2023-07-08T13:18:36;6.38;;;4.25;;
37955;SDS011;23776;51.592;7.180;2023-07-08T13:21:01;6.30;;;3.92;;
37955;SDS011;23776;51.592;7.180;2023-07-08T13:23:28;6.28;;;4.05;;
37955;SDS011;23776;51.592;7.180;2023-07-08T13:25:54;6.10;;;3.95;;
37955;SDS011;23776;51.592;7.180;2023-07-08T13:28:24;5.32;;;4.07;;
37955;SDS011;23776;51.592;7.180;2023-07-08T13:30:55;6.80;;;3.65;;
37955;SDS011;23776;51.592;7.180;2023-07-08T13:33:32;8.75;;;4.15;;
37955;SDS011;23776;51.592;7.180;2023-07-08T13:36:03;5.68;;;3.65;;
37955;SDS011;23776;51.592;7.180;2023-07-08T13:38:34;7.47;;;3.45;;
37955;SDS011;23776;51.592;7.180;2023-07-08T13:41:03;9.88;;;4.00;;
37955;SDS011;23776;51.592;7.180;2023-07-08T13:43:37;9.68;;;3.75;;
37955;SDS011;23776;51.592;7.180;2023-07-08T13:46:06;6.13;;;4.45;;
37955;SDS011;23776;51.592;7.180;2023-07-08T13:48:50;5.38;;;4.13;;
37955;SDS011;23776;51.592;7.180;2023-07-08T13:51:19;9.75;;;4.22;;
37955;SDS011;23776;51.592;7.180;2023-07-08T13:53:56;6.15;;;3.95;;
37955;SDS011;23776;51.592;7.180;2023-07-08T13:56:32;6.10;;;4.03;;
37955;SDS011;23776;51.592;7.180;2023-07-08T13:59:01;6.95;;;3.72;;
37955;SDS011;23776;51.592;7.180;2023-07-08T14:01:29;5.90;;;3.65;;
37955;SDS011;23776;51.592;7.180;2023-07-08T14:03:56;4.90;;;3.85;;
37955;SDS011;23776;51.592;7.180;2023-07-08T14:06:23;5.95;;;3.70;;
37955;SDS011;23776;51.592;7.180;2023-07-08T14:08:53;6.03;;;3.83;;
37955;SDS011;23776;51.592;7.180;2023-07-08T14:11:20;4.88;;;3.80;;
37955;SDS011;23776;51.592;7.180;2023-07-08T14:13:45;5.32;;;3.90;;
37955;SDS011;23776;51.592;7.180;2023-07-08T14:16:25;5.55;;;4.07;;
37955;SDS011;23776;51.592;7.180;2023-07-08T14:18:57;4.88;;;3.80;;
37955;SDS011;23776;51.592;7.180;2023-07-08T14:21:25;5.32;;;4.13;;
37955;SDS011;23776;51.592;7.180;2023-07-08T14:23:50;6.53;;;4.57;;
37955;SDS011;23776;51.592;7.180;2023-07-08T14:26:16;7.97;;;4.75;;
37955;SDS011;23776;51.592;7.180;2023-07-08T14:28:42;6.07;;;4.00;;
37955;SDS011;23776;51.592;7.180;2023-07-08T14:31:11;9.73;;;3.25;;
37955;SDS011;23776;51.592;7.180;2023-07-08T14:33:42;7.47;;;4.18;;
37955;SDS011;23776;51.592;7.180;2023-07-08T14:36:12;5.75;;;4.05;;
37955;SDS011;23776;51.592;7.180;2023-07-08T14:38:39;9.52;;;3.90;;
37955;SDS011;23776;51.592;7.180;2023-07-08T14:41:05;5.95;;;3.80;;
37955;SDS011;23776;51.592;7.180;2023-07-08T14:43:32;6.20;;;4.38;;
37955;SDS011;23776;51.592;7.180;2023-07-08T14:45:59;5.90;;;3.88;;
37955;SDS011;23776;51.592;7.180;2023-07-08T14:48:28;5.68;;;4.05;;
37955;SDS011;23776;51.592;7.180;2023-07-08T14:50:54;5.32;;;4.13;;
37955;SDS011;23776;51.592;7.180;2023-07-08T14:53:20;6.53;;;4.25;;
37955;SDS011;23776;51.592;7.180;2023-07-08T14:55:47;7.32;;;4.30;;
37955;SDS011;23776;51.592;7.180;2023-07-08T14:58:24;5.13;;;3.63;;
37955;SDS011;23776;51.592;7.180;2023-07-08T15:00:56;6.82;;;3.72;;
37955;SDS011;23776;51.592;7.180;2023-07-08T15:03:26;7.70;;;4.22;;
37955;SDS011;23776;51.592;7.180;2023-07-08T15:05:52;6.60;;;4.10;;
37955;SDS011;23776;51.592;7.180;2023-07-08T15:08:18;7.97;;;3.83;;
37955;SDS011;23776;51.592;7.180;2023-07-08T15:10:47;5.90;;;3.90;;
37955;SDS011;23776;51.592;7.180;2023-07-08T15:13:15;6.32;;;4.05;;
37955;SDS011;23776;51.592;7.180;2023-07-08T15:15:43;5.65;;;3.80;;
37955;SDS011;23776;51.592;7.180;2023-07-08T15:18:13;7.03;;;3.75;;
37955;SDS011;23776;51.592;7.180;2023-07-08T15:20:41;6.95;;;3.33;;
37955;SDS011;23776;51.592;7.180;2023-07-08T15:23:07;7.60;;;4.15;;
37955;SDS011;23776;51.592;7.180;2023-07-08T15:25:34;7.07;;;3.47;;
37955;SDS011;23776;51.592;7.180;2023-07-08T15:28:02;6.63;;;3.90;;
37955;SDS011;23776;51.592;7.180;2023-07-08T15:30:29;5.82;;;3.80;;
37955;SDS011;23776;51.592;7.180;2023-07-08T15:32:55;8.63;;;4.20;;
37955;SDS011;23776;51.592;7.180;2023-07-08T15:37:49;6.20;;;4.40;;
37955;SDS011;23776;51.592;7.180;2023-07-08T15:40:17;8.25;;;4.20;;
37955;SDS011;23776;51.592;7.180;2023-07-08T15:42:45;5.35;;;4.28;;
37955;SDS011;23776;51.592;7.180;2023-07-08T15:47:39;4.93;;;3.35;;
37955;SDS011;23776;51.592;7.180;2023-07-08T15:50:24;5.22;;;3.65;;
37955;SDS011;23776;51.592;7.180;2023-07-08T15:52:51;5.43;;;4.15;;
37955;SDS011;23776;51.592;7.180;2023-07-08T15:55:28;5.93;;;3.97;;
37955;SDS011;23776;51.592;7.180;2023-07-08T16:00:46;7.88;;;4.75;;
37955;SDS011;23776;51.592;7.180;2023-07-08T16:03:21;5.55;;;3.92;;
37955;SDS011;23776;51.592;7.180;2023-07-08T16:05:49;6.28;;;3.50;;
37955;SDS011;23776;51.592;7.180;2023-07-08T16:08:16;7.28;;;4.45;;
37955;SDS011;23776;51.592;7.180;2023-07-08T16:10:41;9.65;;;4.22;;
37955;SDS011;23776;51.592;7.180;2023-07-08T16:13:10;5.53;;;4.13;;
37955;SDS011;23776;51.592;7.180;2023-07-08T16:15:37;5.78;;;4.38;;